createdAt,value
2023-01-13T00:01:13.123Z,8.57
2023-01-13T00:03:40.344Z,8.74
2023-01-13T00:06:08.009Z,8.74
2023-01-13T00:08:35.724Z,8.95
2023-01-13T00:11:02.705Z,8.96
2023-01-13T00:13:29.615Z,8.96
2023-01-13T00:16:00.618Z,8.96
2023-01-13T00:18:27.915Z,8.46
2023-01-13T00:21:08.816Z,8.29
2023-01-13T00:23:36.097Z,8.24
2023-01-13T00:26:05.763Z,8.37
2023-01-13T00:28:33.067Z,8.63
2023-01-13T00:31:11.376Z,8.66
2023-01-13T00:33:38.746Z,8.72
2023-01-13T00:36:06.932Z,8.37
2023-01-13T00:38:35.847Z,8.62
2023-01-13T00:41:07.895Z,9.26
2023-01-13T00:43:36.023Z,9.48
2023-01-13T00:46:04.172Z,9.15
2023-01-13T00:48:31.286Z,9.41
2023-01-13T00:51:00.129Z,9.23
2023-01-13T00:53:27.803Z,9.40
2023-01-13T00:56:08.144Z,9.84
2023-01-13T00:58:35.696Z,9.50
2023-01-13T01:01:06.251Z,9.66
2023-01-13T01:03:33.732Z,9.91
2023-01-13T01:06:13.888Z,9.78
2023-01-13T01:08:41.392Z,9.86
2023-01-13T01:11:13.298Z,9.54
2023-01-13T01:13:40.594Z,9.80
2023-01-13T01:16:09.596Z,9.57
2023-01-13T01:18:38.712Z,9.14
2023-01-13T01:21:06.175Z,9.35
2023-01-13T01:23:33.708Z,9.41
2023-01-13T01:26:12.913Z,9.00
2023-01-13T01:28:40.074Z,8.97
2023-01-13T01:31:08.937Z,9.00
2023-01-13T01:33:35.820Z,8.74
2023-01-13T01:36:02.990Z,8.39
2023-01-13T01:38:29.956Z,8.14
2023-01-13T01:40:56.881Z,8.26
2023-01-13T01:43:42.769Z,7.90
2023-01-13T01:46:10.054Z,8.38
2023-01-13T01:48:40.839Z,8.46
2023-01-13T01:51:10.412Z,8.55
2023-01-13T01:53:37.467Z,8.30
2023-01-13T01:56:04.406Z,7.84
2023-01-13T01:58:51.462Z,8.13
2023-01-13T02:01:18.909Z,8.25
2023-01-13T02:03:56.921Z,8.26
2023-01-13T02:06:24.462Z,8.28
2023-01-13T02:08:52.295Z,7.92
2023-01-13T02:11:52.206Z,8.24
2023-01-13T02:14:20.585Z,8.30
2023-01-13T02:17:13.525Z,8.11
2023-01-13T02:20:14.033Z,7.49
2023-01-13T02:23:36.411Z,7.59
2023-01-13T02:26:18.404Z,7.67
2023-01-13T02:29:33.075Z,7.69
2023-01-13T02:32:17.870Z,8.26
2023-01-13T02:34:53.636Z,8.10
2023-01-13T02:37:28.837Z,8.32
2023-01-13T02:40:02.873Z,8.63
2023-01-13T02:42:59.381Z,8.27
2023-01-13T02:45:29.780Z,8.54
2023-01-13T02:47:57.381Z,8.32
2023-01-13T02:50:32.125Z,8.18
2023-01-13T02:53:09.080Z,8.21
2023-01-13T02:55:39.124Z,8.68
2023-01-13T02:58:08.522Z,8.35
2023-01-13T03:00:36.838Z,8.73
2023-01-13T03:03:03.892Z,8.37
2023-01-13T03:05:32.156Z,8.35
2023-01-13T03:08:15.859Z,8.21
2023-01-13T03:10:48.085Z,7.86
2023-01-13T03:13:21.027Z,7.67
2023-01-13T03:16:12.544Z,7.95
2023-01-13T03:18:48.184Z,8.01
2023-01-13T03:21:59.929Z,7.87
2023-01-13T03:24:35.672Z,7.63
2023-01-13T03:27:24.157Z,8.04
2023-01-13T03:30:04.965Z,7.97
2023-01-13T03:32:41.751Z,7.95
2023-01-13T03:35:13.563Z,7.58
2023-01-13T03:37:46.011Z,7.66
2023-01-13T03:40:20.997Z,7.36
2023-01-13T03:43:11.099Z,7.06
2023-01-13T03:45:40.159Z,7.40
2023-01-13T03:48:14.296Z,7.41
2023-01-13T03:50:44.602Z,7.63
2023-01-13T03:53:15.461Z,7.35
2023-01-13T03:55:47.367Z,7.55
2023-01-13T03:58:43.896Z,7.44
2023-01-13T04:01:17.611Z,7.58
2023-01-13T04:03:52.312Z,7.57
2023-01-13T04:07:01.259Z,7.69
2023-01-13T04:09:38.093Z,7.57
2023-01-13T04:12:28.065Z,7.24
2023-01-13T04:14:55.620Z,7.92
2023-01-13T04:17:24.773Z,7.95
2023-01-13T04:19:51.605Z,7.74
2023-01-13T04:22:18.301Z,7.73
2023-01-13T04:24:45.192Z,8.06
2023-01-13T04:27:12.009Z,8.24
2023-01-13T04:29:38.673Z,7.94
2023-01-13T04:32:05.637Z,8.03
2023-01-13T04:34:32.552Z,8.33
2023-01-13T04:36:59.435Z,8.18
2023-01-13T04:39:26.287Z,8.39
2023-01-13T04:41:59.062Z,8.16
2023-01-13T04:44:26.948Z,8.20
2023-01-13T04:46:54.085Z,8.01
2023-01-13T04:49:20.996Z,8.23
2023-01-13T04:51:48.109Z,8.38
2023-01-13T04:54:15.051Z,8.40
2023-01-13T04:56:42.063Z,8.31
2023-01-13T04:59:13.369Z,8.13
2023-01-13T05:01:41.211Z,8.42
2023-01-13T05:04:08.710Z,8.23
2023-01-13T05:06:35.976Z,8.42
2023-01-13T05:09:02.857Z,8.44
2023-01-13T05:11:48.392Z,8.33
2023-01-13T05:14:34.102Z,8.08
2023-01-13T05:17:00.960Z,8.33
2023-01-13T05:19:31.826Z,7.93
2023-01-13T05:22:17.936Z,8.16
2023-01-13T05:25:03.680Z,7.58
2023-01-13T05:27:31.347Z,7.35
2023-01-13T05:29:58.670Z,7.49
2023-01-13T05:32:28.154Z,7.20
2023-01-13T05:34:56.020Z,7.37
2023-01-13T05:37:23.662Z,7.36
2023-01-13T05:40:09.235Z,7.59
2023-01-13T05:42:54.527Z,7.52
2023-01-13T05:45:21.779Z,7.78
2023-01-13T05:47:48.723Z,7.83
2023-01-13T05:50:16.061Z,7.72
2023-01-13T05:52:43.648Z,7.42
2023-01-13T05:55:11.485Z,7.23
2023-01-13T05:57:38.363Z,7.42
2023-01-13T06:00:05.960Z,7.66
2023-01-13T06:02:32.898Z,7.12
2023-01-13T06:04:59.927Z,7.34
2023-01-13T06:07:26.813Z,7.01
2023-01-13T06:09:54.661Z,6.70
2023-01-13T06:12:21.535Z,6.83
2023-01-13T06:14:48.406Z,6.96
2023-01-13T06:17:15.601Z,6.86
2023-01-13T06:19:43.452Z,7.32
2023-01-13T06:22:27.241Z,6.68
2023-01-13T06:24:54.790Z,7.10
2023-01-13T06:27:22.850Z,7.04
2023-01-13T06:29:49.971Z,7.43
2023-01-13T06:32:32.272Z,7.22
2023-01-13T06:35:05.633Z,7.34
2023-01-13T06:37:33.356Z,7.34
2023-01-13T06:40:02.001Z,7.45
2023-01-13T06:42:48.944Z,7.64
2023-01-13T06:45:15.953Z,7.85
2023-01-13T06:47:43.581Z,7.86
2023-01-13T06:50:11.308Z,7.63
2023-01-13T06:52:38.146Z,7.48
2023-01-13T06:55:04.967Z,7.95
2023-01-13T06:57:31.796Z,7.33
2023-01-13T06:59:58.481Z,7.94
2023-01-13T07:02:26.170Z,7.93
2023-01-13T07:04:53.138Z,7.81
2023-01-13T07:07:19.803Z,7.63
2023-01-13T07:09:46.667Z,7.02
2023-01-13T07:12:13.325Z,7.18
2023-01-13T07:14:58.759Z,7.32
2023-01-13T07:17:25.640Z,8.24
2023-01-13T07:19:53.270Z,8.29
2023-01-13T07:22:20.194Z,9.12
2023-01-13T07:24:47.038Z,9.53
2023-01-13T07:27:13.738Z,8.45
2023-01-13T07:29:40.679Z,7.83
2023-01-13T07:32:08.166Z,8.99
2023-01-13T07:34:35.138Z,8.91
2023-01-13T07:37:02.361Z,8.68
2023-01-13T07:39:29.213Z,7.93
2023-01-13T07:42:14.568Z,8.43
2023-01-13T07:44:41.425Z,8.91
2023-01-13T07:47:10.613Z,8.69
2023-01-13T07:49:37.519Z,9.03
2023-01-13T07:52:04.656Z,8.69
2023-01-13T07:54:40.019Z,9.16
2023-01-13T07:57:08.120Z,10.43
2023-01-13T07:59:35.147Z,10.39
2023-01-13T08:02:02.138Z,10.33
2023-01-13T08:04:29.256Z,9.93
2023-01-13T08:06:56.119Z,9.42
2023-01-13T08:09:22.804Z,8.84
2023-01-13T08:12:09.576Z,9.10
2023-01-13T08:14:36.495Z,9.47
2023-01-13T08:17:03.147Z,9.88
2023-01-13T08:19:29.996Z,9.92
2023-01-13T08:21:57.064Z,9.48
2023-01-13T08:24:23.941Z,10.47
2023-01-13T08:26:50.824Z,10.70
2023-01-13T08:29:17.799Z,11.13
2023-01-13T08:31:55.614Z,11.63
2023-01-13T08:34:22.608Z,11.22
2023-01-13T08:36:50.388Z,11.53
2023-01-13T08:39:18.735Z,11.40
2023-01-13T08:41:58.597Z,10.71
2023-01-13T08:44:29.975Z,10.62
2023-01-13T08:46:57.655Z,10.41
2023-01-13T08:49:24.749Z,10.70
2023-01-13T08:51:52.555Z,10.50
2023-01-13T08:54:19.840Z,11.11
2023-01-13T08:56:47.222Z,10.07
2023-01-13T08:59:19.043Z,10.16
2023-01-13T09:01:46.269Z,9.54
2023-01-13T09:04:26.457Z,9.95
2023-01-13T09:06:54.438Z,9.67
2023-01-13T09:09:23.088Z,9.37
2023-01-13T09:12:10.699Z,9.91
2023-01-13T09:14:38.729Z,10.99
2023-01-13T09:17:05.994Z,10.75
2023-01-13T09:19:32.900Z,10.89
2023-01-13T09:22:00.055Z,11.20
2023-01-13T09:24:27.122Z,10.72
2023-01-13T09:26:54.057Z,10.64
2023-01-13T09:29:20.916Z,10.37
2023-01-13T09:31:47.710Z,10.50
2023-01-13T09:34:35.526Z,10.29
2023-01-13T09:37:02.816Z,10.20
2023-01-13T09:39:29.821Z,10.37
2023-01-13T09:42:17.530Z,10.57
2023-01-13T09:45:05.390Z,10.91
2023-01-13T09:47:46.389Z,10.66
2023-01-13T09:51:09.439Z,11.07
2023-01-13T09:54:03.587Z,11.87
2023-01-13T09:56:30.461Z,11.17
2023-01-13T09:58:59.808Z,10.84
2023-01-13T10:02:12.886Z,11.32
2023-01-13T10:04:39.802Z,12.54
2023-01-13T10:07:14.259Z,12.34
2023-01-13T10:09:51.988Z,12.39
2023-01-13T10:12:42.507Z,12.71
2023-01-13T10:15:18.106Z,12.72
2023-01-13T10:17:51.376Z,12.56
2023-01-13T10:20:36.555Z,12.86
2023-01-13T10:23:12.540Z,12.56
2023-01-13T10:25:48.568Z,12.21
2023-01-13T10:28:19.489Z,12.06
2023-01-13T10:30:47.848Z,12.37
2023-01-13T10:33:18.844Z,13.13
2023-01-13T10:35:51.648Z,13.58
2023-01-13T10:38:24.338Z,13.01
2023-01-13T10:40:59.391Z,13.17
2023-01-13T10:43:27.639Z,12.31
2023-01-13T10:45:58.881Z,11.93
2023-01-13T10:48:34.179Z,11.63
2023-01-13T10:51:50.525Z,11.76
2023-01-13T10:54:22.492Z,12.22
2023-01-13T10:56:50.527Z,12.78
2023-01-13T10:59:22.381Z,12.35
2023-01-13T11:02:25.401Z,12.33
2023-01-13T11:05:10.232Z,11.94
2023-01-13T11:07:40.870Z,12.44
2023-01-13T11:10:27.625Z,11.56
2023-01-13T11:13:02.468Z,11.78
2023-01-13T11:15:36.906Z,11.49
2023-01-13T11:18:36.204Z,10.88
2023-01-13T11:21:16.332Z,11.93
2023-01-13T11:23:50.681Z,12.12
2023-01-13T11:26:27.043Z,11.67
2023-01-13T11:29:01.379Z,12.19
2023-01-13T11:31:36.331Z,10.88
2023-01-13T11:34:08.648Z,11.32
2023-01-13T11:36:40.184Z,11.69
2023-01-13T11:39:44.170Z,11.41
2023-01-13T11:42:37.147Z,11.27
2023-01-13T11:45:20.748Z,10.90
2023-01-13T11:47:49.802Z,11.36
2023-01-13T11:50:34.462Z,12.17
2023-01-13T11:56:08.784Z,11.17
2023-01-13T11:59:11.560Z,12.53
2023-01-13T12:01:38.417Z,12.64
2023-01-13T12:04:23.707Z,12.47
2023-01-13T12:07:07.568Z,12.61
2023-01-13T12:10:11.597Z,13.61
2023-01-13T12:12:51.937Z,12.51
2023-01-13T12:15:22.407Z,12.73
2023-01-13T12:17:51.938Z,11.69
2023-01-13T12:20:27.750Z,11.60
2023-01-13T12:22:56.188Z,11.37
2023-01-13T12:25:44.310Z,11.64
2023-01-13T12:28:20.960Z,11.90
2023-01-13T12:30:54.059Z,11.64
2023-01-13T12:36:36.592Z,11.45
2023-01-13T12:39:12.465Z,10.78
2023-01-13T12:42:08.716Z,10.66
2023-01-13T12:44:35.583Z,11.29
2023-01-13T12:47:02.634Z,11.37
2023-01-13T12:49:34.820Z,11.81
2023-01-13T12:52:09.959Z,11.63
2023-01-13T12:54:39.641Z,11.55
2023-01-13T12:57:25.921Z,11.91
2023-01-13T13:00:13.533Z,11.17
2023-01-13T13:02:41.903Z,12.26
2023-01-13T13:05:14.923Z,11.79
2023-01-13T13:07:55.283Z,12.05
2023-01-13T13:10:34.472Z,11.55
2023-01-13T13:13:19.002Z,11.98
2023-01-13T13:15:50.450Z,11.97
2023-01-13T13:18:17.268Z,11.65
2023-01-13T13:21:06.164Z,12.34
2023-01-13T13:23:47.924Z,12.52
2023-01-13T13:26:26.911Z,12.25
2023-01-13T13:29:13.168Z,12.56
2023-01-13T13:31:55.197Z,12.01
2023-01-13T13:34:43.988Z,12.05
2023-01-13T13:38:03.600Z,11.87
2023-01-13T13:40:50.345Z,11.74
2023-01-13T13:43:35.733Z,11.61
2023-01-13T13:46:21.460Z,11.59
2023-01-13T13:48:54.889Z,11.83
2023-01-13T13:51:25.559Z,11.86
2023-01-13T13:53:53.014Z,13.02
2023-01-13T13:56:23.579Z,12.42
2023-01-13T13:58:50.684Z,12.21
2023-01-13T14:01:28.010Z,12.62
2023-01-13T14:04:10.149Z,12.89
2023-01-13T14:06:37.036Z,12.45
2023-01-13T14:09:04.282Z,11.69
2023-01-13T14:11:33.399Z,12.25
2023-01-13T14:14:12.474Z,12.33
2023-01-13T14:16:40.297Z,11.49
2023-01-13T14:19:25.820Z,12.27
2023-01-13T14:21:53.835Z,12.70
2023-01-13T14:24:22.595Z,11.99
2023-01-13T14:26:53.380Z,11.50
2023-01-13T14:29:23.113Z,11.99
2023-01-13T14:34:35.963Z,12.08
2023-01-13T14:37:25.907Z,11.71
2023-01-13T14:39:52.802Z,11.56
2023-01-13T14:42:20.950Z,12.68
2023-01-13T14:44:50.045Z,11.82
2023-01-13T14:47:24.922Z,11.76
2023-01-13T14:50:28.305Z,12.34
2023-01-13T14:52:57.244Z,12.37
2023-01-13T14:55:37.513Z,12.80
2023-01-13T14:58:25.612Z,12.86
2023-01-13T15:00:53.484Z,12.66
2023-01-13T15:03:21.576Z,12.95
2023-01-13T15:05:50.682Z,12.98
2023-01-13T15:08:34.508Z,12.08
2023-01-13T15:11:03.660Z,12.22
2023-01-13T15:13:35.780Z,12.36
2023-01-13T15:16:06.200Z,11.57
2023-01-13T15:18:34.395Z,11.66
2023-01-13T15:21:01.320Z,10.95
2023-01-13T15:23:28.224Z,11.13
2023-01-13T15:25:55.225Z,11.63
2023-01-13T15:28:24.769Z,12.21
2023-01-13T15:30:53.571Z,11.87
2023-01-13T15:33:21.547Z,11.92
2023-01-13T15:35:52.924Z,12.57
2023-01-13T15:38:22.050Z,11.81
2023-01-13T15:40:49.923Z,10.59
2023-01-13T15:43:40.437Z,11.22
2023-01-13T15:46:31.668Z,11.20
2023-01-13T15:49:19.416Z,10.90
2023-01-13T15:51:46.260Z,10.08
2023-01-13T15:54:13.348Z,9.96
2023-01-13T15:56:41.448Z,10.35
2023-01-13T15:59:27.691Z,11.18
2023-01-13T16:01:54.863Z,10.98
2023-01-13T16:04:21.819Z,11.17
2023-01-13T16:06:48.805Z,11.58
2023-01-13T16:09:17.010Z,11.88
2023-01-13T16:11:44.131Z,11.92
2023-01-13T16:14:10.979Z,10.49
2023-01-13T16:16:37.919Z,12.20
2023-01-13T16:19:05.137Z,10.91
2023-01-13T16:21:31.989Z,11.63
2023-01-13T16:23:58.863Z,11.62
2023-01-13T16:26:29.355Z,11.64
2023-01-13T16:28:58.006Z,11.22
2023-01-13T16:31:33.257Z,11.54
2023-01-13T16:34:01.884Z,11.13
2023-01-13T16:36:31.464Z,11.29
2023-01-13T16:38:58.353Z,11.75
2023-01-13T16:41:25.378Z,9.11
2023-01-13T16:43:52.801Z,10.35
2023-01-13T16:46:25.911Z,10.66
2023-01-13T16:49:01.718Z,10.33
2023-01-13T16:51:28.724Z,9.86
2023-01-13T16:53:55.564Z,7.63
2023-01-13T16:56:25.289Z,8.31
2023-01-13T16:58:54.079Z,9.34
2023-01-13T17:01:24.022Z,9.32
2023-01-13T17:03:51.783Z,9.50
2023-01-13T17:06:29.061Z,10.47
2023-01-13T17:09:01.621Z,10.92
2023-01-13T17:11:28.485Z,11.39
2023-01-13T17:13:55.309Z,11.17
2023-01-13T17:16:22.470Z,10.34
2023-01-13T17:18:49.389Z,10.81
2023-01-13T17:21:17.212Z,11.29
2023-01-13T17:23:44.569Z,11.56
2023-01-13T17:26:26.074Z,11.61
2023-01-13T17:28:52.910Z,11.63
2023-01-13T17:31:19.799Z,11.19
2023-01-13T17:33:46.667Z,11.98
2023-01-13T17:36:13.551Z,12.02
2023-01-13T17:38:40.378Z,11.04
2023-01-13T17:41:07.083Z,10.40
2023-01-13T17:43:34.011Z,10.02
2023-01-13T17:46:01.030Z,10.42
2023-01-13T17:48:27.931Z,9.64
2023-01-13T17:50:54.852Z,10.11
2023-01-13T17:53:21.700Z,8.65
2023-01-13T17:55:52.104Z,8.31
2023-01-13T17:58:19.896Z,8.39
2023-01-13T18:00:47.284Z,8.73
2023-01-13T18:03:14.314Z,8.20
2023-01-13T18:05:41.383Z,9.04
2023-01-13T18:08:09.234Z,9.86
2023-01-13T18:10:36.311Z,9.07
2023-01-13T18:13:03.732Z,8.19
2023-01-13T18:15:31.012Z,8.03
2023-01-13T18:17:57.882Z,8.56
2023-01-13T18:20:43.485Z,8.92
2023-01-13T18:23:38.138Z,8.58
2023-01-13T18:26:39.269Z,8.54
2023-01-13T18:29:06.279Z,6.89
2023-01-13T18:31:33.205Z,7.37
2023-01-13T18:34:00.119Z,7.73
2023-01-13T18:36:27.039Z,8.13
2023-01-13T18:38:53.876Z,8.93
2023-01-13T18:41:38.908Z,8.19
2023-01-13T18:44:05.939Z,9.38
2023-01-13T18:46:32.879Z,8.21
2023-01-13T18:49:00.231Z,8.60
2023-01-13T18:51:27.105Z,8.98
2023-01-13T18:53:54.164Z,8.85
2023-01-13T18:56:21.349Z,8.22
2023-01-13T18:58:54.365Z,8.60
2023-01-13T19:01:25.782Z,9.19
2023-01-13T19:04:05.177Z,9.73
2023-01-13T19:06:33.728Z,8.79
2023-01-13T19:09:08.348Z,9.09
2023-01-13T19:11:36.388Z,8.42
2023-01-13T19:14:04.046Z,10.70
2023-01-13T19:16:30.891Z,10.92
2023-01-13T19:18:57.740Z,11.31
2023-01-13T19:21:25.432Z,11.84
2023-01-13T19:23:56.259Z,12.06
2023-01-13T19:26:23.155Z,11.97
2023-01-13T19:28:50.698Z,11.73
2023-01-13T19:31:20.519Z,11.01
2023-01-13T19:33:47.449Z,11.21
2023-01-13T19:36:14.421Z,11.79
2023-01-13T19:38:41.269Z,12.23
2023-01-13T19:41:28.199Z,11.79
2023-01-13T19:44:14.856Z,12.19
2023-01-13T19:46:41.767Z,12.35
2023-01-13T19:49:08.662Z,12.39
2023-01-13T19:51:35.552Z,12.39
2023-01-13T19:54:02.610Z,12.49
2023-01-13T19:56:30.808Z,12.33
2023-01-13T19:58:57.625Z,12.37
2023-01-13T20:01:31.889Z,12.45
2023-01-13T20:04:06.836Z,12.41
2023-01-13T20:06:33.753Z,12.25
2023-01-13T20:09:00.633Z,11.56
2023-01-13T20:11:31.934Z,8.50
2023-01-13T20:13:59.523Z,8.28
2023-01-13T20:16:27.626Z,9.41
2023-01-13T20:18:55.007Z,9.14
2023-01-13T20:21:22.049Z,8.79
2023-01-13T20:23:53.113Z,8.17
2023-01-13T20:26:20.996Z,9.12
2023-01-13T20:28:47.952Z,8.14
2023-01-13T20:31:15.709Z,8.19
2023-01-13T20:33:42.894Z,8.07
2023-01-13T20:36:27.233Z,8.48
2023-01-13T20:38:59.386Z,8.34
2023-01-13T20:41:45.157Z,7.58
2023-01-13T20:44:12.739Z,8.66
2023-01-13T20:46:43.403Z,8.96
2023-01-13T20:49:11.122Z,9.69
2023-01-13T20:51:38.533Z,9.62
2023-01-13T20:54:05.474Z,10.66
2023-01-13T20:56:32.323Z,8.72
2023-01-13T20:58:59.027Z,7.45
2023-01-13T21:01:26.867Z,7.87
2023-01-13T21:03:57.271Z,9.02
2023-01-13T21:06:24.369Z,8.93
2023-01-13T21:08:53.308Z,8.39
2023-01-13T21:11:41.739Z,8.48
2023-01-13T21:14:35.120Z,8.43
2023-01-13T21:17:02.475Z,7.80
2023-01-13T21:19:29.332Z,7.48
2023-01-13T21:21:56.772Z,7.56
2023-01-13T21:24:24.657Z,7.74
2023-01-13T21:26:55.361Z,7.56
2023-01-13T21:29:23.174Z,7.95
2023-01-13T21:31:50.119Z,7.58
2023-01-13T21:34:18.190Z,8.17
2023-01-13T21:36:45.145Z,8.46
2023-01-13T21:39:14.237Z,9.14
2023-01-13T21:41:59.651Z,9.53
2023-01-13T21:44:45.241Z,10.11
2023-01-13T21:47:35.310Z,9.46
2023-01-13T21:50:02.644Z,9.24
2023-01-13T21:52:29.538Z,9.25
2023-01-13T21:55:15.304Z,9.07
2023-01-13T21:57:45.252Z,10.34
2023-01-13T22:00:12.592Z,10.35
2023-01-13T22:02:39.688Z,10.87
2023-01-13T22:05:07.890Z,11.15
2023-01-13T22:07:36.171Z,11.74
2023-01-13T22:10:04.575Z,11.77
2023-01-13T22:12:31.514Z,12.75
2023-01-13T22:14:58.423Z,12.45
2023-01-13T22:17:26.915Z,12.23
2023-01-13T22:19:55.075Z,13.13
2023-01-13T22:22:22.303Z,12.36
2023-01-13T22:24:50.595Z,12.65
2023-01-13T22:27:21.465Z,12.38
2023-01-13T22:29:49.740Z,11.56
2023-01-13T22:32:17.162Z,11.52
2023-01-13T22:34:44.380Z,11.62
2023-01-13T22:37:11.713Z,11.46
2023-01-13T22:39:39.036Z,11.96
2023-01-13T22:42:06.183Z,12.19
2023-01-13T22:44:33.994Z,12.16
2023-01-13T22:47:00.881Z,11.18
2023-01-13T22:49:27.806Z,11.77
2023-01-13T22:51:54.735Z,11.67
2023-01-13T22:54:21.651Z,11.64
2023-01-13T22:56:48.482Z,11.50
2023-01-13T22:59:16.153Z,11.34
2023-01-13T23:01:43.306Z,12.18
2023-01-13T23:04:13.230Z,11.62
2023-01-13T23:06:40.880Z,11.73
2023-01-13T23:09:08.255Z,12.27
2023-01-13T23:11:35.516Z,12.33
2023-01-13T23:14:06.542Z,11.63
2023-01-13T23:16:38.392Z,12.10
2023-01-13T23:19:06.732Z,11.56
2023-01-13T23:21:36.690Z,11.22
2023-01-13T23:24:04.929Z,11.29
2023-01-13T23:26:31.996Z,11.27
2023-01-13T23:29:08.732Z,10.99
2023-01-13T23:31:35.771Z,11.47
2023-01-13T23:34:02.856Z,11.92
2023-01-13T23:36:30.247Z,11.64
2023-01-13T23:38:58.768Z,11.70
2023-01-13T23:41:26.762Z,11.93
2023-01-13T23:43:58.660Z,12.57
2023-01-13T23:46:26.493Z,12.65
2023-01-13T23:48:55.184Z,12.45
2023-01-13T23:51:22.402Z,12.31
2023-01-13T23:53:50.234Z,11.76
2023-01-13T23:56:20.361Z,11.97
2023-01-13T23:58:47.402Z,12.54
